Warren, AR (71671)

10:05 PM CDT on July 10, 2014 (GMT -0500)
Hwy 172 (KARMONTI2) Elev 246 ft | 33.55 °N, 91.82 °W | Change Station

Current weather conditions updated 5 minutes ago

Overcast
Overcast
71.9 °F
Feels Like 76 °F
N
0.0
Wind Variable Wind from South
Gusts 0.0 mph

Tomorrow is forecast to be Warmer than today.

Today
High -- | Low -- °F
--% Chance of Precip.
Yesterday
High -- | Low -- °F
Precip. -- in
6:06 AM 8:20 PM
Waxing Gibbous, 97% visible
Pressure 30.08 in
Visibility 10.0 miles
Clouds Overcast 9000 ft
Heat Index 76 °F
Dew Point 58 °F
Humidity 62%
Rainfall 0.03 in
Snow Depth Not available.
UV 0 out of 12
Pollen 3.20 out of 12
Air Quality Not available.
Flu Activity No Activity
METAR KLLQ 110253Z AUTO 00000KT 10SM OVC090 23/21 A3008 RMK AO2 SLP184 T02280206 50009

More Conditions Fewer Conditions

Pressure 30.08 in
Visibility 10.0 miles
Clouds Overcast 9000 ft
Heat Index 76 °F
Dew Point 58 °F
Humidity 62%
Rainfall 0.03 in
Snow Depth Not available.
UV 0 out of 12
Pollen 3.20 out of 12
Air Quality Not available.
Flu Activity No Activity
METAR KLLQ 110253Z AUTO 00000KT 10SM OVC090 23/21 A3008 RMK AO2 SLP184 T02280206 50009

More Conditions Fewer Conditions

10-Day Weather Forecast

Almanac

Astronomy

Jul. 10, 2014 Rise Set
Actual Time 6:06 AM CDT 8:20 PM CDT
Civil Twilight 5:37 AM CDT 8:49 PM CDT
Nautical Twilight 5:02 AM CDT 9:24 PM CDT
Astronomical Twilight 4:24 AM CDT 10:02 PM CDT
Moon 6:36 PM CDT (7/10) 4:15 AM CDT (7/10)
Length of Visible Light 15h 11m
Length of Day
14h 14m
Tomorrow will be 0m 53s shorter.
Waxing Gibbous, 97% of the Moon is Illuminated
Today
Waxing Gibbous
Jul 12
Full
Jul 18
Last Quarter
Jul 26
New
Aug 3
First Quarter

Today's Extremes

State Highs State Lows

Community

WunderPhotos

Upload Photos

1,732,358 photos uploaded!

Nearby

Snow Depth

Station Depth Elevation
No new snow has been reported.

Earthquake Activity

City Distance Mag. Time & Date
No recent earthquake activity has been reported nearby.
Minimum magnitude displayed is 2.5.

Coastal Water Temperatures

Place Temperature
No Stations Reporting

Nearby Weather Stations

Station Location Temp. Heat Index Dew Point Humidity Wind Precip. Elev Updated Type
Hwy 172, Monticello, AR 71.9 °F 76 °F 58 °F 62% South  at  0.0 mph 0.00 in / hr 246 ft 9:59 PM CDT Normal
RAWS UAM AR, Monticello, AR 73 °F - 71 °F 95% South  at  4 mph 0.00 in / hr 183 ft 9:00 PM CDT MADIS
Hampton, AR, Hampton, AR 71.4 °F - 71 °F 98% South  at  2.2 mph 0.00 in / hr 200 ft 9:19 PM CDT Rapid Fire
MesoWest RISON , Rison, AR 85 °F 82 °F - - North  at  - 0.00 in / hr 204 ft 8:40 PM CDT MADIS

Show More Stations Show Fewer Stations